createdAt,value
2017-11-11T00:01:34.121Z,4.80
2017-11-11T00:04:07.935Z,4.80
2017-11-11T00:06:41.760Z,4.80
2017-11-11T00:09:15.512Z,5.00
2017-11-11T00:11:50.075Z,4.90
2017-11-11T00:14:23.690Z,4.90
2017-11-11T00:16:57.482Z,4.80
2017-11-11T00:19:32.036Z,4.90
2017-11-11T00:22:06.231Z,4.90
2017-11-11T00:24:40.052Z,4.90
2017-11-11T00:27:14.024Z,4.90
2017-11-11T00:29:47.684Z,4.90
2017-11-11T00:32:21.541Z,4.90
2017-11-11T00:34:55.199Z,4.90
2017-11-11T00:37:29.007Z,4.90
2017-11-11T00:40:02.710Z,4.90
2017-11-11T00:42:37.577Z,4.90
2017-11-11T00:45:11.509Z,4.90
2017-11-11T00:47:45.545Z,4.90
2017-11-11T00:50:19.359Z,4.90
2017-11-11T00:52:53.211Z,4.90
2017-11-11T00:55:26.954Z,4.90
2017-11-11T00:58:00.711Z,4.90
2017-11-11T01:00:35.417Z,4.90
2017-11-11T01:03:09.280Z,4.90
2017-11-11T01:05:43.024Z,4.80
2017-11-11T01:08:16.897Z,4.80
2017-11-11T01:10:50.574Z,4.90
2017-11-11T01:13:24.339Z,4.90
2017-11-11T01:15:58.854Z,4.80
2017-11-11T01:18:32.589Z,4.80
2017-11-11T01:21:07.490Z,4.80
2017-11-11T01:23:41.274Z,4.80
2017-11-11T01:26:15.011Z,4.70
2017-11-11T01:28:48.864Z,4.70
2017-11-11T01:31:22.594Z,4.70
2017-11-11T01:33:56.360Z,4.70
2017-11-11T01:36:30.178Z,4.60
2017-11-11T01:39:03.883Z,4.70
2017-11-11T01:41:37.676Z,4.60
2017-11-11T01:44:11.331Z,4.70
2017-11-11T01:46:45.057Z,4.70
2017-11-11T01:49:18.890Z,4.70
2017-11-11T01:51:52.563Z,4.70
2017-11-11T01:54:26.469Z,4.60
2017-11-11T01:57:00.146Z,4.70
2017-11-11T01:59:33.890Z,4.80
2017-11-11T02:02:07.627Z,4.80
2017-11-11T02:04:41.439Z,4.80
2017-11-11T02:07:15.934Z,4.90
2017-11-11T02:09:49.786Z,5.00
2017-11-11T02:12:24.406Z,4.90
2017-11-11T02:14:58.170Z,5.00
2017-11-11T02:17:32.634Z,4.90
2017-11-11T02:20:06.347Z,4.90
2017-11-11T02:22:40.863Z,4.70
2017-11-11T02:25:14.610Z,4.70
2017-11-11T02:27:48.358Z,4.70
2017-11-11T02:30:22.166Z,4.80
2017-11-11T02:32:55.927Z,4.70
2017-11-11T02:35:29.721Z,4.60
2017-11-11T02:38:03.516Z,4.60
2017-11-11T02:40:37.226Z,4.70
2017-11-11T02:43:11.050Z,4.70
2017-11-11T02:45:44.784Z,4.70
2017-11-11T02:48:18.556Z,4.60
2017-11-11T02:50:52.314Z,4.60
2017-11-11T02:53:26.895Z,4.60
2017-11-11T02:56:00.828Z,4.60
2017-11-11T02:58:34.697Z,4.60
2017-11-11T03:01:08.452Z,4.60
2017-11-11T03:03:42.999Z,4.60
2017-11-11T03:06:16.778Z,4.70
2017-11-11T03:08:51.319Z,4.60
2017-11-11T03:11:25.098Z,4.60
2017-11-11T03:13:58.873Z,4.60
2017-11-11T03:16:32.596Z,4.60
2017-11-11T03:19:07.221Z,4.50
2017-11-11T03:21:40.925Z,4.50
2017-11-11T03:24:14.788Z,4.50
2017-11-11T03:26:48.506Z,4.60
2017-11-11T03:29:22.314Z,4.50
2017-11-11T03:31:56.090Z,4.60
2017-11-11T03:34:29.961Z,4.60
2017-11-11T03:37:05.191Z,4.70
2017-11-11T03:39:38.796Z,4.70
2017-11-11T03:42:12.569Z,4.70
2017-11-11T03:44:46.469Z,4.80
2017-11-11T03:47:20.148Z,4.70
2017-11-11T03:49:54.749Z,4.80
2017-11-11T03:52:28.393Z,4.80
2017-11-11T03:55:02.203Z,4.80
2017-11-11T03:57:35.918Z,4.80
2017-11-11T04:00:09.730Z,4.80
2017-11-11T04:02:43.563Z,4.90
2017-11-11T04:05:17.272Z,4.80
2017-11-11T04:07:51.036Z,4.90
2017-11-11T04:10:24.835Z,4.90
2017-11-11T04:12:58.703Z,4.90
2017-11-11T04:15:32.659Z,4.90
2017-11-11T04:18:06.435Z,4.80
2017-11-11T04:20:40.152Z,4.80
2017-11-11T04:23:13.930Z,4.80
2017-11-11T04:25:47.819Z,5.00
2017-11-11T04:28:22.385Z,4.90
2017-11-11T04:30:56.842Z,4.90
2017-11-11T04:33:31.543Z,4.90
2017-11-11T04:36:05.281Z,4.90
2017-11-11T04:38:39.807Z,4.80
2017-11-11T04:41:13.574Z,4.80
2017-11-11T04:43:48.079Z,4.90
2017-11-11T04:46:21.807Z,4.90
2017-11-11T04:48:56.274Z,4.90
2017-11-11T04:51:30.950Z,4.90
2017-11-11T04:54:04.762Z,4.90
2017-11-11T04:56:38.398Z,4.90
2017-11-11T04:59:12.450Z,5.00
2017-11-11T05:01:46.191Z,4.90
2017-11-11T05:04:19.886Z,4.90
2017-11-11T05:06:53.716Z,5.00
2017-11-11T05:09:27.499Z,5.00
2017-11-11T05:12:01.318Z,5.10
2017-11-11T05:14:35.089Z,5.10
2017-11-11T05:17:09.126Z,5.00
2017-11-11T05:19:43.019Z,5.00
2017-11-11T05:22:16.824Z,5.10
2017-11-11T05:24:51.341Z,5.00
2017-11-11T05:27:25.146Z,5.00
2017-11-11T05:29:58.808Z,4.90
2017-11-11T05:32:33.566Z,4.90
2017-11-11T05:35:07.166Z,4.90
2017-11-11T05:37:41.742Z,5.00
2017-11-11T05:40:16.107Z,5.00
2017-11-11T05:42:49.992Z,4.90
2017-11-11T05:45:23.656Z,4.90
2017-11-11T05:47:57.458Z,4.80
2017-11-11T05:50:31.154Z,4.70
2017-11-11T05:53:05.816Z,4.70
2017-11-11T05:55:39.351Z,4.60
2017-11-11T05:58:13.199Z,4.60
2017-11-11T06:00:47.658Z,4.60
2017-11-11T06:03:21.383Z,4.70
2017-11-11T06:05:55.117Z,4.60
2017-11-11T06:08:28.873Z,4.70
2017-11-11T06:11:04.211Z,4.70
2017-11-11T06:13:38.061Z,4.70
2017-11-11T06:16:12.026Z,4.70
2017-11-11T06:18:46.593Z,4.70
2017-11-11T06:21:21.127Z,4.70
2017-11-11T06:23:55.825Z,4.70
2017-11-11T06:26:30.275Z,4.80
2017-11-11T06:29:04.913Z,4.90
2017-11-11T06:31:41.515Z,5.00
2017-11-11T06:34:15.986Z,5.00
2017-11-11T06:36:50.654Z,5.00
2017-11-11T06:39:24.278Z,5.00
2017-11-11T06:41:58.843Z,4.90
2017-11-11T06:44:32.640Z,5.00
2017-11-11T06:47:06.443Z,5.00
2017-11-11T06:49:41.402Z,4.90
2017-11-11T06:52:15.082Z,5.00
2017-11-11T06:54:49.848Z,5.10
2017-11-11T06:57:23.870Z,5.10
2017-11-11T06:59:57.770Z,5.10
2017-11-11T07:02:32.297Z,5.10
2017-11-11T07:05:06.877Z,5.10
2017-11-11T07:07:40.651Z,5.00
2017-11-11T07:10:14.406Z,5.10
2017-11-11T07:12:48.765Z,5.10
2017-11-11T07:15:23.705Z,5.10
2017-11-11T07:17:58.882Z,5.20
2017-11-11T07:20:33.086Z,5.20
2017-11-11T07:23:06.780Z,5.20
2017-11-11T07:25:40.599Z,5.20
2017-11-11T07:28:14.474Z,5.20
2017-11-11T07:30:49.256Z,5.20
2017-11-11T07:33:23.172Z,5.20
2017-11-11T07:35:57.653Z,5.10
2017-11-11T07:38:31.669Z,5.10
2017-11-11T07:41:05.475Z,5.10
2017-11-11T07:43:39.247Z,5.10
2017-11-11T07:46:14.140Z,5.20
2017-11-11T07:48:47.966Z,5.20
2017-11-11T07:51:21.755Z,5.20
2017-11-11T07:53:55.469Z,5.20
2017-11-11T07:56:29.529Z,5.30
2017-11-11T07:59:03.259Z,5.30
2017-11-11T08:01:37.119Z,5.30
2017-11-11T08:04:11.213Z,5.30
2017-11-11T08:06:46.081Z,5.40
2017-11-11T08:09:19.949Z,5.40
2017-11-11T08:11:53.597Z,5.50
2017-11-11T08:14:27.375Z,5.70
2017-11-11T08:17:01.184Z,5.70
2017-11-11T08:19:36.791Z,5.80
2017-11-11T08:22:10.466Z,5.80
2017-11-11T08:24:45.083Z,6.00
2017-11-11T08:27:19.562Z,6.00
2017-11-11T08:29:53.385Z,6.00
2017-11-11T08:35:21.972Z,6.00
2017-11-11T08:37:55.702Z,6.00
2017-11-11T08:40:29.366Z,6.00
2017-11-11T08:43:03.157Z,6.00
2017-11-11T08:45:38.176Z,6.00
2017-11-11T08:48:12.824Z,6.00
2017-11-11T08:50:46.655Z,6.10
2017-11-11T08:53:21.214Z,6.10
2017-11-11T08:55:55.980Z,6.10
2017-11-11T08:58:30.050Z,6.10
2017-11-11T09:01:03.852Z,6.10
2017-11-11T09:03:38.352Z,6.20
2017-11-11T09:06:14.968Z,6.20
2017-11-11T09:08:48.940Z,6.30
2017-11-11T09:11:23.840Z,6.30
2017-11-11T09:13:57.632Z,6.40
2017-11-11T09:16:31.236Z,6.50
2017-11-11T09:19:05.896Z,6.60
2017-11-11T09:21:39.675Z,6.80
2017-11-11T09:24:13.578Z,6.90
2017-11-11T09:26:47.412Z,7.00
2017-11-11T09:29:22.089Z,7.00
2017-11-11T09:31:57.173Z,7.20
2017-11-11T09:34:32.086Z,7.30
2017-11-11T09:37:06.591Z,7.40
2017-11-11T09:39:40.844Z,7.40
2017-11-11T09:42:14.859Z,7.40
2017-11-11T09:44:48.878Z,7.40
2017-11-11T09:47:25.003Z,7.40
2017-11-11T09:50:00.366Z,7.20
2017-11-11T09:52:35.907Z,7.20
2017-11-11T09:55:10.721Z,6.90
2017-11-11T09:57:45.553Z,6.80
2017-11-11T10:00:19.484Z,6.70
2017-11-11T10:02:53.540Z,6.70
2017-11-11T10:05:27.483Z,6.60
2017-11-11T10:08:01.226Z,6.50
2017-11-11T10:10:35.046Z,6.30
2017-11-11T10:13:08.804Z,6.00
2017-11-11T10:15:43.934Z,5.80
2017-11-11T10:18:17.636Z,5.90
2017-11-11T10:20:52.669Z,6.10
2017-11-11T10:23:27.960Z,6.20
2017-11-11T10:26:01.601Z,6.20
2017-11-11T10:28:35.774Z,6.30
2017-11-11T10:31:10.288Z,6.50
2017-11-11T10:33:44.077Z,6.60
2017-11-11T10:36:17.854Z,6.60
2017-11-11T10:38:51.707Z,6.60
2017-11-11T10:41:25.461Z,6.60
2017-11-11T10:43:59.192Z,6.50
2017-11-11T10:46:32.967Z,6.40
2017-11-11T10:49:06.783Z,6.30
2017-11-11T10:51:40.542Z,6.20
2017-11-11T10:54:14.393Z,6.10
2017-11-11T10:56:48.877Z,5.90
2017-11-11T10:59:23.303Z,5.90
2017-11-11T11:01:57.184Z,5.70
2017-11-11T11:04:32.137Z,5.60
2017-11-11T11:07:07.040Z,5.60
2017-11-11T11:09:46.874Z,5.50
2017-11-11T11:12:21.718Z,5.50
2017-11-11T11:14:55.520Z,5.50
2017-11-11T11:17:29.296Z,5.70
2017-11-11T11:20:02.997Z,5.80
2017-11-11T11:22:38.370Z,6.00
2017-11-11T11:25:12.051Z,5.90
2017-11-11T11:27:45.856Z,6.00
2017-11-11T11:30:19.729Z,6.10
2017-11-11T11:32:54.242Z,6.10
2017-11-11T11:35:29.280Z,6.20
2017-11-11T11:38:03.023Z,6.40
2017-11-11T11:40:36.643Z,6.50
2017-11-11T11:43:11.191Z,6.70
2017-11-11T11:45:44.951Z,6.70
2017-11-11T11:48:19.324Z,6.80
2017-11-11T11:50:53.976Z,6.80
2017-11-11T11:53:28.459Z,6.60
2017-11-11T11:56:02.167Z,6.60
2017-11-11T11:58:35.742Z,6.50
2017-11-11T12:01:09.627Z,6.50
2017-11-11T12:03:43.338Z,6.60
2017-11-11T12:06:17.167Z,6.60
2017-11-11T12:08:50.880Z,6.70
2017-11-11T12:11:25.511Z,6.60
2017-11-11T12:13:59.255Z,6.60
2017-11-11T12:16:33.017Z,6.60
2017-11-11T12:19:07.546Z,6.60
2017-11-11T12:21:41.289Z,6.60
2017-11-11T12:24:16.481Z,6.70
2017-11-11T12:26:51.902Z,6.60
2017-11-11T12:29:25.557Z,6.60
2017-11-11T12:31:59.375Z,6.50
2017-11-11T12:34:33.276Z,6.50
2017-11-11T12:37:06.937Z,5.50
2017-11-11T12:39:40.747Z,4.80
2017-11-11T12:42:14.534Z,4.70
2017-11-11T12:44:48.402Z,4.60
2017-11-11T12:47:23.954Z,4.40
2017-11-11T12:49:57.613Z,4.40
2017-11-11T12:52:31.382Z,4.30
2017-11-11T12:55:05.454Z,4.30
2017-11-11T12:57:39.487Z,4.30
2017-11-11T13:00:13.487Z,4.40
2017-11-11T13:02:47.207Z,4.40
2017-11-11T13:05:21.914Z,4.40
2017-11-11T13:07:55.782Z,4.50
2017-11-11T13:10:31.525Z,4.40
2017-11-11T13:13:05.802Z,4.40
2017-11-11T13:15:39.863Z,4.40
2017-11-11T13:18:14.962Z,4.40
2017-11-11T13:20:48.623Z,4.50
2017-11-11T13:23:22.659Z,4.50
2017-11-11T13:25:57.347Z,4.50
2017-11-11T13:28:30.959Z,4.60
2017-11-11T13:31:05.480Z,4.70
2017-11-11T13:33:39.158Z,4.70
2017-11-11T13:36:12.943Z,4.70
2017-11-11T13:38:46.584Z,4.70
2017-11-11T13:41:20.367Z,4.80
2017-11-11T13:43:54.196Z,4.80
2017-11-11T13:46:32.691Z,4.80
2017-11-11T13:49:06.328Z,4.80
2017-11-11T13:51:47.046Z,4.80
2017-11-11T13:54:20.744Z,4.80
2017-11-11T13:56:54.520Z,4.80
2017-11-11T13:59:30.373Z,4.80
2017-11-11T14:02:03.971Z,4.80
2017-11-11T14:04:37.628Z,4.80
2017-11-11T14:07:12.685Z,4.80
2017-11-11T14:09:46.710Z,4.80
2017-11-11T14:12:20.404Z,4.80
2017-11-11T14:15:06.598Z,4.80
2017-11-11T14:17:40.363Z,4.80
2017-11-11T14:20:15.976Z,4.80
2017-11-11T14:22:49.679Z,4.80
2017-11-11T14:25:23.769Z,4.90
2017-11-11T14:27:58.313Z,4.90
2017-11-11T14:30:32.257Z,4.90
2017-11-11T14:33:06.972Z,5.00
2017-11-11T14:35:40.626Z,4.90
2017-11-11T14:38:14.407Z,5.00
2017-11-11T14:40:48.315Z,4.90
2017-11-11T14:43:22.571Z,5.00
2017-11-11T14:45:56.602Z,5.00
2017-11-11T14:48:30.502Z,5.00
2017-11-11T14:51:05.336Z,5.00
2017-11-11T14:53:39.864Z,4.90
2017-11-11T14:56:13.605Z,4.90
2017-11-11T14:58:48.093Z,4.90
2017-11-11T15:01:21.730Z,4.90
2017-11-11T15:03:56.263Z,4.80
2017-11-11T15:06:30.392Z,4.80
2017-11-11T15:09:05.972Z,4.80
2017-11-11T15:11:39.795Z,4.80
2017-11-11T15:14:13.848Z,4.80
2017-11-11T15:16:47.543Z,4.80
2017-11-11T15:19:22.842Z,4.70
2017-11-11T15:21:56.513Z,4.70
2017-11-11T15:24:30.189Z,4.70
2017-11-11T15:27:03.916Z,4.70
2017-11-11T15:29:38.252Z,4.80
2017-11-11T15:32:11.927Z,4.70
2017-11-11T15:34:45.710Z,4.80
2017-11-11T15:37:19.347Z,4.70
2017-11-11T15:39:55.373Z,4.80
2017-11-11T15:42:30.100Z,4.80
2017-11-11T15:45:03.916Z,4.80
2017-11-11T15:47:39.607Z,4.80
2017-11-11T15:50:13.464Z,4.80
2017-11-11T15:52:47.911Z,4.70
2017-11-11T15:55:21.688Z,4.70
2017-11-11T15:57:55.516Z,4.60
2017-11-11T16:00:29.534Z,4.60
2017-11-11T16:03:03.433Z,4.50
2017-11-11T16:05:37.203Z,4.40
2017-11-11T16:08:10.864Z,4.50
2017-11-11T16:10:44.961Z,4.40
2017-11-11T16:13:18.653Z,4.40
2017-11-11T16:15:53.273Z,4.40
2017-11-11T16:18:27.323Z,4.40
2017-11-11T16:21:05.762Z,4.40
2017-11-11T16:23:39.563Z,4.40
2017-11-11T16:26:13.743Z,4.40
2017-11-11T16:28:47.995Z,4.50
2017-11-11T16:31:21.939Z,4.50
2017-11-11T16:33:55.736Z,4.40
2017-11-11T16:36:29.733Z,4.50
2017-11-11T16:39:03.567Z,4.40
2017-11-11T16:41:39.034Z,4.50
2017-11-11T16:44:12.851Z,4.50
2017-11-11T16:46:47.446Z,4.50
2017-11-11T16:49:22.790Z,4.50
2017-11-11T16:51:56.567Z,4.50
2017-11-11T16:54:31.111Z,4.50
2017-11-11T16:57:09.331Z,4.60
2017-11-11T16:59:43.528Z,4.60
2017-11-11T17:02:17.471Z,4.60
2017-11-11T17:04:51.280Z,4.70
2017-11-11T17:07:25.115Z,4.70
2017-11-11T17:09:58.824Z,4.70
2017-11-11T17:12:34.224Z,4.60
2017-11-11T17:15:08.007Z,4.60
2017-11-11T17:17:41.616Z,4.60
2017-11-11T17:20:15.407Z,4.70
2017-11-11T17:22:49.162Z,4.70
2017-11-11T17:25:22.871Z,4.70
2017-11-11T17:27:57.283Z,4.80
2017-11-11T17:30:32.278Z,4.80
2017-11-11T17:33:06.178Z,4.80
2017-11-11T17:35:40.159Z,4.80
2017-11-11T17:38:13.967Z,4.80
2017-11-11T17:40:47.749Z,4.80
2017-11-11T17:43:21.683Z,4.70
2017-11-11T17:45:56.862Z,4.70
2017-11-11T17:48:30.915Z,4.70
2017-11-11T17:51:04.719Z,4.70
2017-11-11T17:53:38.596Z,4.70
2017-11-11T17:56:12.473Z,4.70
2017-11-11T17:58:52.122Z,4.80
2017-11-11T18:01:27.547Z,4.80
2017-11-11T18:04:01.388Z,4.70
2017-11-11T18:06:35.497Z,4.70
2017-11-11T18:09:10.768Z,4.80
2017-11-11T18:11:44.455Z,4.80
2017-11-11T18:14:18.320Z,4.80
2017-11-11T18:16:52.798Z,4.90
2017-11-11T18:19:26.772Z,4.90
2017-11-11T18:22:00.344Z,5.00
2017-11-11T18:24:35.979Z,5.00
2017-11-11T18:27:10.625Z,5.00
2017-11-11T18:29:45.296Z,5.00
2017-11-11T18:32:20.522Z,5.00
2017-11-11T18:34:54.191Z,5.00
2017-11-11T18:37:27.991Z,4.90
2017-11-11T18:40:02.556Z,4.90
2017-11-11T18:42:36.505Z,4.90
2017-11-11T18:45:10.356Z,4.90
2017-11-11T18:47:44.763Z,4.90
2017-11-11T18:50:18.775Z,4.80
2017-11-11T18:52:55.451Z,4.80
2017-11-11T18:55:31.915Z,4.70
2017-11-11T18:58:08.099Z,4.70
2017-11-11T19:08:54.795Z,4.70
2017-11-11T19:11:28.822Z,4.70
2017-11-11T19:14:02.930Z,4.60
2017-11-11T19:16:36.710Z,4.60
2017-11-11T19:21:57.412Z,4.50
2017-11-11T19:24:31.007Z,4.40
2017-11-11T19:27:06.207Z,4.40
2017-11-11T19:29:40.055Z,4.50
2017-11-11T19:32:20.783Z,4.40
2017-11-11T19:34:55.598Z,4.40
2017-11-11T19:37:31.031Z,4.40
2017-11-11T19:42:43.830Z,4.40
2017-11-11T19:45:18.467Z,4.40
2017-11-11T19:47:53.499Z,4.40
2017-11-11T19:50:31.776Z,4.50
2017-11-11T19:53:05.782Z,4.40
2017-11-11T20:04:35.136Z,4.40
2017-11-11T20:07:15.369Z,4.40
2017-11-11T20:09:56.734Z,4.40
2017-11-11T20:58:53.240Z,4.20
2017-11-11T21:01:31.416Z,4.20
2017-11-11T21:04:06.918Z,4.20
2017-11-11T21:09:21.368Z,4.20
2017-11-11T21:20:05.837Z,4.10
2017-11-11T21:25:39.755Z,4.00
2017-11-11T21:28:14.422Z,4.00
2017-11-11T21:30:50.161Z,3.90
2017-11-11T21:36:05.236Z,4.00
2017-11-11T21:38:39.843Z,3.90
2017-11-11T21:41:14.142Z,3.90
2017-11-11T21:43:47.902Z,3.90
2017-11-11T21:46:22.426Z,3.90
2017-11-11T21:48:56.172Z,3.90
2017-11-11T21:51:30.084Z,3.90
2017-11-11T21:56:43.667Z,3.90
2017-11-11T21:59:18.375Z,3.90
2017-11-11T22:01:52.347Z,3.90
2017-11-11T22:04:26.153Z,3.90
2017-11-11T22:07:00.109Z,3.90
2017-11-11T22:09:34.369Z,4.00
2017-11-11T22:12:10.313Z,3.90
2017-11-11T22:14:44.235Z,4.00
2017-11-11T22:17:18.003Z,3.90
2017-11-11T22:19:52.435Z,3.90
2017-11-11T22:22:28.231Z,3.90
2017-11-11T22:25:02.892Z,4.00
2017-11-11T22:27:36.577Z,3.90
2017-11-11T22:30:10.274Z,3.90
2017-11-11T22:32:44.078Z,4.00
2017-11-11T22:35:17.802Z,3.90
2017-11-11T22:37:51.714Z,4.00
2017-11-11T22:40:25.624Z,4.00
2017-11-11T22:42:59.390Z,4.00
2017-11-11T22:45:34.136Z,4.00
2017-11-11T22:48:08.299Z,3.90
2017-11-11T22:50:41.985Z,4.00
2017-11-11T22:53:17.197Z,4.00
2017-11-11T22:55:52.420Z,4.00
2017-11-11T22:58:27.547Z,4.00
2017-11-11T23:01:01.872Z,4.00
2017-11-11T23:03:35.483Z,4.10
2017-11-11T23:06:09.531Z,4.10
2017-11-11T23:08:43.629Z,4.00
2017-11-11T23:11:17.412Z,4.00
2017-11-11T23:13:51.248Z,4.00
2017-11-11T23:16:25.114Z,4.00
2017-11-11T23:18:58.827Z,3.90
2017-11-11T23:21:32.808Z,3.90
2017-11-11T23:24:06.734Z,3.90
2017-11-11T23:26:40.935Z,3.90
2017-11-11T23:29:14.830Z,3.90
2017-11-11T23:31:48.621Z,3.80
2017-11-11T23:34:22.320Z,3.80
2017-11-11T23:36:56.051Z,3.80
2017-11-11T23:39:29.797Z,3.80
2017-11-11T23:42:04.262Z,3.90
2017-11-11T23:44:38.148Z,3.90
2017-11-11T23:47:12.700Z,3.80
2017-11-11T23:49:46.455Z,3.90
2017-11-11T23:52:20.601Z,3.90
2017-11-11T23:54:55.110Z,3.80
2017-11-11T23:57:28.723Z,3.70
